26.6°F
Current conditions from King Hill
Updated every 5 minutes
 
  Thursday April 2, 2015

Observations for Westford

Westford

44° 37' 39"N, 73° 02' 29"W, Elevation 850 ft.
Eastern Time

Hourly observations for the last 72 hours

Date Time Temperature (F) Humi-
dity

(%)
Wind
(mph)
Pressure Rain (in)
Air Dew 6 Hour 1 Hr 3 Hr 6 Hr Day
Alt
(in)
Sea
Level

(mb)
Max Min
2 05:00 26.0 9.4 49 SSW 4 G 9 30.11 1019.6 0.00
2 04:00 24.1 10.3 55 SSW 1 G 5 30.12 1020.0 0.00
2 03:00 22.8 10.2 58 SSW 1 G 5 30.11 1019.7 0.00
2 02:00 24.4 10.1 27.4 20.1 54 SSW 1 G 7 30.10 1019.5 0.00
2 01:00 21.2 11.6 66 Calm 30.13 1020.3 0.00
2 00:00 20.7 10.8 65 Calm 30.12 1020.1 0.00
1 23:00 20.7 12.1 69 Calm 30.11 1019.8 0.00
1 22:00 23.9 11.7 59 Calm 30.12 1020.0 0.00
1 21:00 27.0 9.4 47 Calm 30.14 1020.6 0.00
1 20:00 27.4 9.3 35.0 27.4 46 Calm 30.12 1020.0 0.00
1 19:00 30.7 12.8 47 Calm 30.11 1019.5 0.00
1 18:00 33.4 12.2 41 NNE 0 G 10 30.10 1019.2 0.00
1 17:00 34.6 11.0 37 N 1 G 7 30.09 1018.9 0.00
1 16:00 32.8 10.5 39 NW 4 G 13 30.08 1018.5 0.00
1 15:00 31.6 12.2 44 WNW 3 G 13 30.07 1018.4 0.00
1 14:00 30.3 11.0 31.2 19.6 44 NW 3 G 15 30.08 1018.6 0.00
1 13:00 29.0 9.3 43 WNW 4 G 12 30.08 1018.5 0.00
1 12:00 28.1 9.5 45 WNW 6 G 14 30.07 1018.3 0.00
1 11:00 27.7 9.1 45 WNW 6 G 11 30.06 1017.9 0.00
1 10:00 26.2 8.2 46 NNE 1 G 12 30.04 1017.4 0.00
1 09:00 25.1 7.7 47 N 1 G 8 30.03 1016.9 0.00
1 08:00 19.6 6.8 23.5 15.6 57 N 2 G 8 30.01 1016.4 0.00
1 07:00 16.6 7.5 67 NE 0 G 1 29.97 1015.0 0.00
1 06:00 18.0 9.5 69 Calm 29.93 1013.5 0.00
1 05:00 20.8 11.6 67 NNE 0 G 7 29.90 1012.4 0.00
1 04:00 21.2 11.6 66 N 0 G 2 29.88 1011.8 0.00
1 03:00 22.6 8.4 54 NW 0 G 1 29.86 1011.3 0.00
1 02:00 23.5 7.6 27.3 21.3 50 NW 0 G 1 29.85 1010.9 0.00
1 01:00 24.9 7.5 47 NW 0 G 2 29.84 1010.6 0.00
1 00:00 23.5 8.4 52 Calm 29.84 1010.4 0.00
31 23:00 22.4 11.7 63 Calm 29.84 1010.4 0.00
31 22:00 24.5 11.4 57 Calm 29.83 1010.2 0.00
31 21:00 24.9 13.4 61 Calm 29.82 1009.8 0.00
31 20:00 27.3 12.4 36.3 27.3 53 NNE 0 G 2 29.80 1009.1 0.00
31 19:00 30.5 11.2 44 NNE 0 G 4 29.77 1008.3 0.00
31 18:00 34.9 11.2 37 N 0 G 6 29.75 1007.6 0.00
31 17:00 35.9 8.9 32 N 1 G 8 29.73 1006.9 0.00
31 16:00 36.2 7.7 30 NW 2 G 6 29.73 1006.7 0.00
31 15:00 36.1 9.1 32 NW 1 G 7 29.72 1006.4 0.00
31 14:00 34.5 11.5 34.7 26.4 38 N 2 G 10 29.73 1006.7 0.00
31 13:00 33.1 15.5 48 NW 1 G 13 29.73 1006.8 0.00
31 12:00 32.1 15.5 50 NW 6 G 15 29.74 1007.2 0.00
31 11:00 30.6 17.6 58 NW 3 G 13 29.76 1007.7 0.00
31 10:00 28.2 18.7 67 NW 6 G 14 29.76 1007.9 0.00
31 09:00 27.4 19.6 72 NW 3 G 11 29.76 1007.8 0.00
31 08:00 26.7 19.5 30.7 25.7 74 NNW 1 G 7 29.75 1007.5 0.00
31 07:00 26.1 20.2 78 NNW 0 G 8 29.74 1007.0 0.00
31 06:00 27.7 21.1 76 NW 5 G 13 29.72 1006.5 0.00
31 05:00 28.5 21.3 74 WNW 3 G 12 29.71 1006.1 0.00
31 04:00 29.0 22.4 76 NW 5 G 16 29.69 1005.5 0.00
31 03:00 29.4 22.5 75 WNW 1 G 14 29.68 1005.2 0.00
31 02:00 30.7 25.0 35.7 30.7 79 NW 4 G 15 29.67 1004.6 0.00
31 01:00 31.3 28.2 88 W 6 G 13 29.66 1004.3 0.00
31 00:00 32.1 30.0 92 W 6 G 14 29.64 1003.8 0.00
30 23:00 33.4 29.1 84 SW 4 G 8 29.64 1003.6 0.00
30 22:00 33.2 29.8 87 SW 4 G 9 29.63 1003.4 0.00
30 21:00 34.3 30.3 85 SW 2 G 8 29.63 1003.4 0.00
30 20:00 35.7 29.5 37.8 34.5 78 WSW 8 G 18 29.61 1002.7 0.00
30 19:00 36.6 29.1 74 WSW 10 G 18 29.59 1002.1 0.00
30 18:00 37.8 27.8 67 WSW 6 G 24 29.58 1001.6 0.00
30 17:00 37.2 28.3 70 WSW 9 G 15 29.56 1001.2 0.00
30 16:00 36.3 29.8 77 SW 8 G 13 29.56 1000.9 0.00
30 15:00 35.0 30.4 83 SSW 6 G 12 29.54 1000.5 0.00
30 14:00 34.5 29.9 35.4 30.5 83 SSW 8 G 13 29.54 1000.4 0.00
30 13:00 34.6 29.4 81 SW 3 G 15 29.54 1000.5 0.00
30 12:00 34.9 28.7 78 SSW 7 G 19 29.55 1000.8 0.00
30 11:00 35.0 28.2 76 SSW 11 G 26 29.57 1001.4 0.00
30 10:00 32.3 26.5 79 SSW 10 G 22 29.59 1001.9 0.00
30 09:00 31.2 25.5 79 SSW 5 G 21 29.61 1002.7 0.00
30 08:00 30.5 23.5 34.0 30.5 75 SSW 10 G 24 29.64 1003.7 0.00
30 07:00 32.0 18.5 57 S 6 G 20 29.67 1004.7 0.00
30 06:00 32.9 13.4 44 SSW 5 G 14 29.69 1005.4 0.00

Data generated by WxSolution Version 1.8.7.3, Build 2014.12.21.


 
 
Current Radar Loop:

Copyright © WestfordWeather.net 2007-2015. All rights reserved.